Time;durP1;ratioP1;P1;durP2;ratioP2;P2;SDS_P1;SDS_P2;PMS_P1;PMS_P2;Temp;Humidity;BMP_temperature;BMP_pressure;BME280_temperature;BME280_humidity;BME280_pressure;Samples;Min_cycle;Max_cycle;Signal;HPM_P1;HPM_P2
2022/07/20 00:01:21;;;;;;;1.65;1.30;;;27.60;39.30;;;;;;5013468;28;20030;-53
2022/07/20 00:03:47;;;;;;;1.85;1.20;;;27.60;39.30;;;;;;5003882;28;20031;-50
2022/07/20 00:06:14;;;;;;;1.92;1.30;;;27.60;39.30;;;;;;5010201;28;20127;-53
2022/07/20 00:11:24;;;;;;;1.50;1.10;;;27.60;39.90;;;;;;5010531;28;20029;-56
2022/07/20 00:13:52;;;;;;;1.25;1.15;;;27.60;39.30;;;;;;5008691;28;20048;-54
2022/07/20 00:16:19;;;;;;;2.95;1.52;;;27.60;39.30;;;;;;5011409;28;20033;-54
2022/07/20 00:18:46;;;;;;;1.48;1.10;;;27.60;39.20;;;;;;5011394;28;20096;-56
2022/07/20 00:21:13;;;;;;;1.77;1.17;;;27.60;39.10;;;;;;5005955;28;20029;-54
2022/07/20 00:23:39;;;;;;;1.33;1.10;;;27.60;39.20;;;;;;5011138;28;20103;-55
2022/07/20 00:26:05;;;;;;;1.58;1.17;;;27.60;39.00;;;;;;5010758;28;20041;-53
2022/07/20 00:28:31;;;;;;;2.05;1.45;;;27.60;39.00;;;;;;5008946;28;20026;-56
2022/07/20 00:30:57;;;;;;;1.30;1.20;;;27.60;38.90;;;;;;5010614;28;20084;-55
2022/07/20 00:33:23;;;;;;;1.50;1.10;;;27.60;38.90;;;;;;5010052;28;20029;-53
2022/07/20 00:35:49;;;;;;;1.67;1.27;;;27.60;39.50;;;;;;5009833;28;20045;-53
2022/07/20 00:38:15;;;;;;;1.27;1.10;;;27.60;38.80;;;;;;5010938;28;20022;-52
2022/07/20 00:40:41;;;;;;;1.33;1.23;;;27.60;38.80;;;;;;5010463;28;20038;-56
2022/07/20 00:43:07;;;;;;;1.67;1.38;;;27.60;38.70;;;;;;5010741;28;20025;-56
2022/07/20 00:45:33;;;;;;;1.98;1.45;;;27.60;38.70;;;;;;5010348;28;20054;-55
2022/07/20 00:47:59;;;;;;;2.78;1.48;;;27.60;38.70;;;;;;5010698;28;20080;-52
2022/07/20 00:50:25;;;;;;;1.42;1.17;;;27.70;38.70;;;;;;5012735;28;20034;-50
2022/07/20 00:52:51;;;;;;;1.50;1.25;;;27.60;38.60;;;;;;5009796;28;20096;-55
2022/07/20 00:55:17;;;;;;;1.65;1.20;;;27.60;38.60;;;;;;5009701;28;20144;-54
2022/07/20 00:57:43;;;;;;;1.33;1.20;;;27.60;38.60;;;;;;5009954;28;20083;-57
2022/07/20 01:00:11;;;;;;;2.53;1.20;;;27.60;38.60;;;;;;5005422;28;20357;-56
2022/07/20 01:02:37;;;;;;;2.10;1.58;;;27.60;38.60;;;;;;5007377;28;20049;-50
2022/07/20 01:05:05;;;;;;;2.03;1.50;;;27.60;38.50;;;;;;5010200;28;20511;-55
2022/07/20 01:07:31;;;;;;;2.35;1.25;;;27.60;38.50;;;;;;5010125;28;20034;-52
2022/07/20 01:09:57;;;;;;;1.67;1.25;;;27.60;38.40;;;;;;5008810;28;20030;-53
2022/07/20 01:12:23;;;;;;;2.80;1.40;;;27.60;38.50;;;;;;5010599;28;20018;-53
2022/07/20 01:14:54;;;;;;;1.48;1.33;;;27.60;38.40;;;;;;5010003;28;20049;-55
2022/07/20 01:17:19;;;;;;;2.08;1.25;;;27.60;38.50;;;;;;5008971;28;20052;-52
2022/07/20 01:19:46;;;;;;;1.50;1.30;;;27.60;38.50;;;;;;5008492;28;20453;-55
2022/07/20 01:22:11;;;;;;;1.42;1.02;;;27.60;38.50;;;;;;5010461;28;20030;-52
2022/07/20 01:24:37;;;;;;;2.65;1.30;;;27.60;38.40;;;;;;5009181;28;20041;-53
2022/07/20 01:27:05;;;;;;;1.60;1.30;;;27.60;38.40;;;;;;5009506;28;20030;-53
2022/07/20 01:29:31;;;;;;;1.48;1.20;;;27.60;38.40;;;;;;5008515;28;20038;-53
2022/07/20 01:31:57;;;;;;;1.58;1.35;;;27.60;38.40;;;;;;5009835;28;20133;-51
2022/07/20 01:34:23;;;;;;;1.88;1.35;;;27.60;38.40;;;;;;5009001;28;20433;-56
2022/07/20 01:36:49;;;;;;;2.55;1.58;;;27.60;38.40;;;;;;5009256;28;20548;-57
2022/07/20 01:39:15;;;;;;;1.45;1.27;;;27.60;38.40;;;;;;5011467;28;20030;-55
2022/07/20 01:41:40;;;;;;;1.92;1.40;;;27.60;38.40;;;;;;5010681;28;20022;-52
2022/07/20 01:44:06;;;;;;;1.55;1.20;;;27.60;38.40;;;;;;5009198;28;20034;-55
2022/07/20 01:46:32;;;;;;;1.35;1.10;;;27.60;38.40;;;;;;5010301;28;20097;-55
2022/07/20 01:48:58;;;;;;;2.40;1.33;;;27.60;38.40;;;;;;5007782;28;20034;-59
2022/07/20 01:51:24;;;;;;;2.10;1.50;;;27.60;38.40;;;;;;5009882;28;20044;-56
2022/07/20 01:53:50;;;;;;;1.45;1.05;;;27.60;38.40;;;;;;5007884;28;20084;-49
2022/07/20 01:56:15;;;;;;;1.45;1.35;;;27.60;38.40;;;;;;5008259;28;20060;-51
2022/07/20 01:58:41;;;;;;;2.38;1.48;;;27.60;38.40;;;;;;5009294;28;20030;-54
2022/07/20 02:01:07;;;;;;;1.90;1.60;;;27.60;38.40;;;;;;5009323;28;20345;-57
2022/07/20 02:03:33;;;;;;;1.77;1.23;;;27.60;38.40;;;;;;5006304;28;20037;-52
2022/07/20 02:05:59;;;;;;;1.90;1.33;;;27.60;38.40;;;;;;5009765;28;20057;-55
2022/07/20 02:08:25;;;;;;;1.70;1.30;;;27.60;38.40;;;;;;5006810;28;20096;-52
2022/07/20 02:10:52;;;;;;;1.58;1.40;;;27.60;38.40;;;;;;5010126;28;21511;-57
2022/07/20 02:13:18;;;;;;;2.03;1.42;;;27.60;38.40;;;;;;5009506;28;20457;-56
2022/07/20 02:18:28;;;;;;;1.65;1.30;;;27.60;38.50;;;;;;5008311;28;20073;-52
2022/07/20 02:20:54;;;;;;;2.28;1.10;;;27.60;38.50;;;;;;5009464;28;20404;-52
2022/07/20 02:23:20;;;;;;;2.67;1.77;;;27.60;38.50;;;;;;5008140;28;20034;-57
2022/07/20 02:25:45;;;;;;;2.22;1.40;;;27.60;38.40;;;;;;5009237;28;20037;-54
2022/07/20 02:28:11;;;;;;;1.38;1.17;;;27.60;38.40;;;;;;5008871;28;20113;-52
2022/07/20 02:30:38;;;;;;;1.42;1.33;;;27.60;38.40;;;;;;5009956;28;20026;-53
2022/07/20 02:33:04;;;;;;;1.80;1.30;;;27.60;38.30;;;;;;5011910;28;20038;-56
2022/07/20 02:35:30;;;;;;;1.50;1.30;;;27.60;38.40;;;;;;5012540;28;20369;-57
2022/07/20 02:37:56;;;;;;;1.75;1.20;;;27.60;38.30;;;;;;5012561;28;20397;-52
2022/07/20 02:40:22;;;;;;;1.42;1.15;;;27.60;38.30;;;;;;5012102;28;20022;-51
2022/07/20 02:42:47;;;;;;;1.50;1.25;;;27.60;38.30;;;;;;5013235;28;20464;-55
2022/07/20 02:45:13;;;;;;;1.67;1.45;;;27.60;38.20;;;;;;5011216;28;20034;-57
2022/07/20 02:47:43;;;;;;;1.50;1.30;;;27.60;38.30;;;;;;5012723;28;20026;-54
2022/07/20 02:50:09;;;;;;;1.45;1.15;;;27.60;38.20;;;;;;5012486;28;20345;-52
2022/07/20 02:52:35;;;;;;;2.25;1.50;;;27.60;38.30;;;;;;5013574;28;21387;-52
2022/07/20 02:55:01;;;;;;;2.17;1.50;;;27.60;38.30;;;;;;5014344;28;20070;-51
2022/07/20 02:57:26;;;;;;;2.22;1.60;;;27.50;38.20;;;;;;5011340;28;20033;-50
2022/07/20 02:59:52;;;;;;;1.98;1.60;;;27.50;38.20;;;;;;5009584;28;20444;-54
2022/07/20 03:02:18;;;;;;;1.70;1.45;;;27.50;38.30;;;;;;5013935;28;20021;-56
2022/07/20 03:04:44;;;;;;;2.85;1.50;;;27.50;38.20;;;;;;5012680;28;20064;-54
2022/07/20 03:07:09;;;;;;;2.03;1.40;;;27.50;38.20;;;;;;5004320;28;20041;-49
2022/07/20 03:09:35;;;;;;;1.90;1.50;;;27.50;38.20;;;;;;5010636;28;20076;-55
2022/07/20 03:12:01;;;;;;;2.78;1.45;;;27.50;38.20;;;;;;5013325;28;20109;-55
2022/07/20 03:14:27;;;;;;;1.70;1.30;;;27.50;38.20;;;;;;5010860;28;20092;-56
2022/07/20 03:16:52;;;;;;;1.73;1.25;;;27.50;38.20;;;;;;5012433;28;20057;-51
2022/07/20 03:19:18;;;;;;;1.42;1.33;;;27.50;38.20;;;;;;5011020;28;20057;-56
2022/07/20 03:21:44;;;;;;;2.17;1.42;;;27.50;38.20;;;;;;5011559;28;20038;-52
2022/07/20 03:24:10;;;;;;;1.73;1.45;;;27.50;38.20;;;;;;5011334;28;20026;-54
2022/07/20 03:26:36;;;;;;;2.95;1.83;;;27.50;38.20;;;;;;5012193;28;20032;-51
2022/07/20 03:29:02;;;;;;;1.90;1.10;;;27.50;38.10;;;;;;5011162;28;20033;-53
2022/07/20 03:31:28;;;;;;;3.88;1.55;;;27.60;38.20;;;;;;5009387;28;20022;-55
2022/07/20 03:33:53;;;;;;;2.60;1.67;;;27.50;38.20;;;;;;5010841;28;20030;-55
2022/07/20 03:36:19;;;;;;;1.88;1.50;;;27.50;38.20;;;;;;5010121;28;20029;-55
2022/07/20 03:38:45;;;;;;;2.83;1.38;;;27.50;38.20;;;;;;5011797;28;20121;-56
2022/07/20 03:41:11;;;;;;;2.28;1.40;;;27.50;38.20;;;;;;5012655;28;20033;-52
2022/07/20 03:43:36;;;;;;;1.80;1.42;;;27.50;38.20;;;;;;5009214;28;20021;-55
2022/07/20 03:46:02;;;;;;;1.52;1.30;;;27.50;38.20;;;;;;5010768;28;20034;-52
2022/07/20 03:48:28;;;;;;;2.95;1.42;;;27.50;38.20;;;;;;5011297;28;20041;-55
2022/07/20 03:50:53;;;;;;;2.30;1.58;;;27.50;38.20;;;;;;5012425;28;20042;-55
2022/07/20 03:53:19;;;;;;;2.20;1.55;;;27.50;38.20;;;;;;5013027;28;20061;-55
2022/07/20 03:55:45;;;;;;;1.90;1.33;;;27.50;38.20;;;;;;5011372;28;20037;-57
2022/07/20 03:58:11;;;;;;;2.00;1.30;;;27.50;38.20;;;;;;5011633;28;20029;-53
2022/07/20 04:00:37;;;;;;;1.42;1.20;;;27.50;38.20;;;;;;5010591;28;20034;-50
2022/07/20 04:03:03;;;;;;;2.15;1.48;;;27.50;38.20;;;;;;5013270;28;20041;-55
2022/07/20 04:05:28;;;;;;;1.73;1.50;;;27.50;38.20;;;;;;5009463;28;20033;-54
2022/07/20 04:07:54;;;;;;;1.60;1.30;;;27.50;38.20;;;;;;5003981;28;20034;-55
2022/07/20 04:10:20;;;;;;;1.65;1.55;;;27.50;38.20;;;;;;5008908;28;20021;-52
2022/07/20 04:12:46;;;;;;;2.58;1.42;;;27.50;38.20;;;;;;5011042;28;20026;-50
2022/07/20 04:15:12;;;;;;;2.30;1.48;;;27.50;38.20;;;;;;5011421;28;20048;-53
2022/07/20 04:17:41;;;;;;;2.47;1.85;;;27.50;38.20;;;;;;5010588;28;20356;-56
2022/07/20 04:20:07;;;;;;;2.72;1.40;;;27.50;38.20;;;;;;5009925;28;20441;-55
2022/07/20 04:22:33;;;;;;;2.58;1.50;;;27.50;38.20;;;;;;5012600;28;20437;-57
2022/07/20 04:24:59;;;;;;;2.78;1.63;;;27.50;38.20;;;;;;4997952;28;20049;-56
2022/07/20 04:27:25;;;;;;;1.90;1.50;;;27.50;38.20;;;;;;5007185;28;20404;-50
2022/07/20 04:29:51;;;;;;;2.20;1.80;;;27.50;38.20;;;;;;5010400;28;20095;-56
2022/07/20 04:32:17;;;;;;;1.90;1.60;;;27.50;38.20;;;;;;5011119;28;20034;-56
2022/07/20 04:34:43;;;;;;;3.60;1.90;;;27.50;38.30;;;;;;5009419;28;20053;-55
2022/07/20 04:37:08;;;;;;;2.03;1.83;;;27.40;38.20;;;;;;5008359;28;20030;-50
2022/07/20 04:39:34;;;;;;;2.97;2.03;;;27.40;38.20;;;;;;5010783;28;20045;-57
2022/07/20 04:42:00;;;;;;;4.07;1.90;;;27.50;38.40;;;;;;5010259;28;20029;-51
2022/07/20 04:44:26;;;;;;;3.05;2.28;;;27.40;38.30;;;;;;5009998;28;20034;-52
2022/07/20 04:46:52;;;;;;;2.42;2.00;;;27.50;38.40;;;;;;5010934;28;20314;-49
2022/07/20 04:49:18;;;;;;;2.40;1.83;;;27.50;38.50;;;;;;5009276;28;20037;-55
2022/07/20 04:51:43;;;;;;;3.75;2.35;;;27.40;38.40;;;;;;5008769;28;20058;-58
2022/07/20 04:54:10;;;;;;;3.30;2.20;;;27.40;38.50;;;;;;5012340;28;20369;-55
2022/07/20 04:56:36;;;;;;;1.98;1.77;;;27.40;38.60;;;;;;5012303;28;20528;-54
2022/07/20 04:59:03;;;;;;;2.88;2.53;;;27.50;38.70;;;;;;5010382;28;20026;-50
2022/07/20 05:01:29;;;;;;;3.25;2.45;;;27.50;38.90;;;;;;5010774;28;20026;-51
2022/07/20 05:03:55;;;;;;;4.07;2.50;;;27.40;38.90;;;;;;5006951;28;20030;-53
2022/07/20 05:06:20;;;;;;;6.10;2.47;;;27.40;39.10;;;;;;5009112;28;20030;-52
2022/07/20 05:08:47;;;;;;;4.38;2.95;;;27.40;39.20;;;;;;5009257;28;20029;-54
2022/07/20 05:11:13;;;;;;;2.80;2.30;;;27.40;39.30;;;;;;5010660;28;20107;-52
2022/07/20 05:13:39;;;;;;;3.53;2.78;;;27.40;39.40;;;;;;5010215;28;20034;-54
2022/07/20 05:16:05;;;;;;;3.63;3.00;;;27.40;39.50;;;;;;5009996;28;20528;-53
2022/07/20 05:18:31;;;;;;;5.97;2.88;;;27.50;39.80;;;;;;5008645;28;20029;-58
2022/07/20 05:20:58;;;;;;;3.65;3.20;;;27.50;39.90;;;;;;5010825;28;20088;-52
2022/07/20 05:23:24;;;;;;;4.93;3.28;;;27.40;40.00;;;;;;5010504;28;20026;-51
2022/07/20 05:25:49;;;;;;;4.10;3.45;;;27.40;40.10;;;;;;5011246;28;20404;-54
2022/07/20 05:28:20;;;;;;;4.30;3.50;;;27.40;40.30;;;;;;5010013;28;20049;-54
2022/07/20 05:30:46;;;;;;;5.45;4.00;;;27.40;40.40;;;;;;5009431;28;20041;-52
2022/07/20 05:33:12;;;;;;;5.70;3.80;;;27.40;40.60;;;;;;5009509;28;20026;-55
2022/07/20 05:35:38;;;;;;;5.43;4.72;;;27.50;40.80;;;;;;5006817;28;20145;-53
2022/07/20 05:38:04;;;;;;;6.03;5.13;;;27.50;41.00;;;;;;5010065;28;20109;-55
2022/07/20 05:40:30;;;;;;;8.98;5.32;;;27.50;41.20;;;;;;5010051;28;20410;-51
2022/07/20 05:42:56;;;;;;;7.05;4.70;;;27.50;41.40;;;;;;5010362;28;20109;-55
2022/07/20 05:45:22;;;;;;;6.75;5.45;;;27.50;41.50;;;;;;5011766;28;20129;-52
2022/07/20 05:47:48;;;;;;;7.65;5.82;;;27.50;41.70;;;;;;5008660;28;20038;-53
2022/07/20 05:50:13;;;;;;;9.30;6.18;;;27.50;41.90;;;;;;5011145;28;20096;-55
2022/07/20 05:52:39;;;;;;;8.05;6.30;;;27.50;42.10;;;;;;5010318;28;20060;-52
2022/07/20 05:55:06;;;;;;;9.10;7.38;;;27.50;42.30;;;;;;5009194;28;20534;-53
2022/07/20 05:57:34;;;;;;;8.82;7.20;;;27.50;42.60;;;;;;5010910;28;20061;-54
2022/07/20 06:00:00;;;;;;;11.43;7.40;;;27.50;42.80;;;;;;5007294;28;20030;-50
2022/07/20 06:02:26;;;;;;;9.38;7.47;;;27.60;43.10;;;;;;5010104;28;20100;-51
2022/07/20 06:04:52;;;;;;;10.10;7.45;;;27.60;43.20;;;;;;5010991;28;20044;-53
2022/07/20 06:07:17;;;;;;;11.63;8.80;;;27.60;43.40;;;;;;5011920;28;20490;-56
2022/07/20 06:09:43;;;;;;;12.23;8.43;;;27.60;43.50;;;;;;5010334;28;20022;-54
2022/07/20 06:12:10;;;;;;;10.23;7.68;;;27.60;43.70;;;;;;5013929;28;20022;-50
2022/07/20 06:14:35;;;;;;;11.63;8.13;;;27.60;43.80;;;;;;5012582;28;20045;-57
2022/07/20 06:17:01;;;;;;;9.80;8.25;;;27.60;43.90;;;;;;5012367;28;20042;-49
2022/07/20 06:19:27;;;;;;;11.70;8.10;;;27.60;44.00;;;;;;5013076;28;20097;-56
2022/07/20 06:21:53;;;;;;;12.98;8.48;;;27.60;44.10;;;;;;5013516;28;20026;-56
2022/07/20 06:24:19;;;;;;;15.30;9.98;;;27.60;44.30;;;;;;5011873;28;20088;-49
2022/07/20 06:26:46;;;;;;;15.50;9.15;;;27.60;44.40;;;;;;5014532;28;20030;-53
2022/07/20 06:29:13;;;;;;;10.80;8.90;;;27.60;44.60;;;;;;5012045;28;20564;-54
2022/07/20 06:31:39;;;;;;;13.65;9.30;;;27.70;44.80;;;;;;5007982;28;20030;-52
2022/07/20 06:34:06;;;;;;;14.10;9.60;;;27.60;44.80;;;;;;5012327;28;20029;-56
2022/07/20 06:36:32;;;;;;;13.25;10.07;;;27.70;45.00;;;;;;5012696;28;21861;-56
2022/07/20 06:38:58;;;;;;;13.00;9.85;;;27.70;45.10;;;;;;5012625;28;20054;-53
2022/07/20 06:41:24;;;;;;;12.70;10.63;;;27.70;45.20;;;;;;5012789;28;20438;-53
2022/07/20 06:43:49;;;;;;;14.75;10.68;;;27.70;45.30;;;;;;5011870;28;20030;-50
2022/07/20 06:46:15;;;;;;;15.32;11.93;;;27.70;45.40;;;;;;5013041;28;20441;-51
2022/07/20 06:48:41;;;;;;;13.20;10.70;;;27.70;45.50;;;;;;5010835;28;20037;-54
2022/07/20 06:51:07;;;;;;;13.88;11.55;;;27.70;45.60;;;;;;5008276;28;20029;-55
2022/07/20 06:53:33;;;;;;;13.88;12.48;;;27.70;46.30;;;;;;5009693;28;20125;-49
2022/07/20 06:56:00;;;;;;;12.60;11.27;;;27.70;45.80;;;;;;5011412;28;20030;-55
2022/07/20 06:58:26;;;;;;;14.18;12.10;;;27.70;45.90;;;;;;5015827;28;20038;-53
2022/07/20 07:00:51;;;;;;;13.77;12.30;;;27.70;46.00;;;;;;5017342;28;20098;-56
2022/07/20 07:03:17;;;;;;;15.07;12.38;;;27.70;46.10;;;;;;5017428;28;20032;-55
2022/07/20 07:05:43;;;;;;;14.60;12.30;;;27.70;46.10;;;;;;5012404;28;20140;-53
2022/07/20 07:08:09;;;;;;;13.15;11.75;;;27.70;46.20;;;;;;5010931;28;20255;-58
2022/07/20 07:10:35;;;;;;;12.88;11.57;;;27.70;46.20;;;;;;5011980;28;20390;-53
2022/07/20 07:13:00;;;;;;;13.63;11.63;;;27.70;46.30;;;;;;5013932;28;20091;-54
2022/07/20 07:15:26;;;;;;;12.88;11.52;;;27.80;46.50;;;;;;5017291;28;20038;-54
2022/07/20 07:17:52;;;;;;;12.18;10.88;;;27.80;46.50;;;;;;5016452;28;20119;-50
2022/07/20 07:20:18;;;;;;;13.05;11.50;;;27.80;46.60;;;;;;5017120;28;20045;-51
2022/07/20 07:22:43;;;;;;;14.40;11.70;;;27.80;46.70;;;;;;5015984;28;20107;-58
2022/07/20 07:25:09;;;;;;;13.50;11.35;;;27.80;46.70;;;;;;5015716;28;20026;-56
2022/07/20 07:27:35;;;;;;;14.52;12.45;;;27.80;46.80;;;;;;5015011;28;20030;-57
2022/07/20 07:30:01;;;;;;;15.27;11.93;;;27.80;46.80;;;;;;5015066;28;20342;-57
2022/07/20 07:32:27;;;;;;;13.90;11.48;;;27.80;46.80;;;;;;5016952;28;20113;-53
2022/07/20 07:34:52;;;;;;;12.93;11.63;;;27.80;46.80;;;;;;5015915;28;20033;-54
2022/07/20 07:37:18;;;;;;;12.48;11.07;;;27.80;46.80;;;;;;5016428;28;20113;-56
2022/07/20 07:39:44;;;;;;;12.68;11.38;;;27.80;46.80;;;;;;5016918;28;20037;-53
2022/07/20 07:42:10;;;;;;;11.30;10.20;;;27.80;46.80;;;;;;5016962;28;20441;-50
2022/07/20 07:44:36;;;;;;;12.98;10.70;;;27.80;46.80;;;;;;5016356;28;20048;-53
2022/07/20 07:47:01;;;;;;;14.20;10.93;;;27.80;46.80;;;;;;5015030;28;20095;-53
2022/07/20 07:49:27;;;;;;;11.48;10.07;;;27.80;46.70;;;;;;5017290;28;20091;-52
2022/07/20 07:51:53;;;;;;;11.85;10.52;;;27.80;46.70;;;;;;5014604;28;20058;-52
2022/07/20 07:54:19;;;;;;;11.55;10.25;;;27.80;46.70;;;;;;5015608;28;20045;-52
2022/07/20 07:56:44;;;;;;;11.25;10.13;;;27.80;46.70;;;;;;5014661;28;20156;-54
2022/07/20 07:59:10;;;;;;;11.05;9.80;;;27.80;46.70;;;;;;5016233;28;20179;-52
2022/07/20 08:01:36;;;;;;;11.38;10.10;;;27.80;46.70;;;;;;5016516;28;20030;-56
2022/07/20 08:04:04;;;;;;;12.20;9.70;;;27.80;46.60;;;;;;5011638;28;20036;-58
2022/07/20 08:06:29;;;;;;;11.20;9.70;;;27.80;46.70;;;;;;5016434;28;20311;-56
2022/07/20 08:08:57;;;;;;;9.95;8.55;;;27.90;46.70;;;;;;5016500;28;20030;-53
2022/07/20 08:11:23;;;;;;;11.10;9.10;;;27.90;46.70;;;;;;5016094;28;20073;-56
2022/07/20 08:13:49;;;;;;;9.57;8.57;;;27.90;46.70;;;;;;5016188;28;20030;-52
2022/07/20 08:16:15;;;;;;;9.77;8.32;;;27.90;46.60;;;;;;5000614;28;20038;-51
2022/07/20 08:18:41;;;;;;;9.88;8.82;;;27.90;46.60;;;;;;4996609;28;20026;-55
2022/07/20 08:21:07;;;;;;;10.27;8.70;;;27.80;46.60;;;;;;4996864;28;20030;-55
2022/07/20 08:23:33;;;;;;;9.07;8.02;;;27.90;46.60;;;;;;5007282;28;20109;-54
2022/07/20 08:25:58;;;;;;;10.32;8.20;;;27.90;46.50;;;;;;5007432;28;20038;-56
2022/07/20 08:28:24;;;;;;;9.80;7.57;;;27.90;46.50;;;;;;5009085;28;20026;-52
2022/07/20 08:30:52;;;;;;;9.18;8.18;;;27.90;46.50;;;;;;5008756;28;20033;-58
2022/07/20 08:33:19;;;;;;;8.68;7.30;;;27.90;47.10;;;;;;5010777;28;20402;-49
2022/07/20 08:35:45;;;;;;;10.73;7.53;;;27.90;46.50;;;;;;5010749;28;20564;-55
2022/07/20 08:38:11;;;;;;;8.85;7.20;;;27.90;46.50;;;;;;5007708;28;20044;-58
2022/07/20 08:40:38;;;;;;;8.35;7.03;;;28.00;46.50;;;;;;5011275;28;20030;-55
2022/07/20 08:43:04;;;;;;;7.32;6.60;;;27.90;46.40;;;;;;5009784;28;20050;-53
2022/07/20 08:45:31;;;;;;;7.97;6.50;;;27.90;46.40;;;;;;5009210;28;20112;-55
2022/07/20 08:48:03;;;;;;;8.32;6.78;;;27.90;46.30;;;;;;5012610;28;20030;-56
2022/07/20 08:50:31;;;;;;;7.95;6.93;;;28.00;46.40;;;;;;5015277;28;20464;-53
2022/07/20 08:52:58;;;;;;;7.80;6.20;;;28.00;46.30;;;;;;5014930;28;20061;-57
2022/07/20 08:55:25;;;;;;;8.57;6.82;;;28.00;46.30;;;;;;5012760;28;20125;-53
2022/07/20 08:57:51;;;;;;;6.70;5.70;;;28.00;46.20;;;;;;5009927;28;20033;-55
2022/07/20 09:00:18;;;;;;;6.65;5.95;;;28.00;46.20;;;;;;5007109;28;20630;-57
2022/07/20 09:02:56;;;;;;;8.23;6.00;;;28.00;46.20;;;;;;5008430;28;20091;-58
2022/07/20 09:05:24;;;;;;;6.40;5.22;;;28.00;46.20;;;;;;5009153;28;20037;-55
2022/07/20 09:07:55;;;;;;;7.57;5.63;;;28.00;46.20;;;;;;5008688;28;20026;-55
2022/07/20 09:10:41;;;;;;;7.45;5.53;;;28.00;46.20;;;;;;5009400;28;20042;-55
2022/07/20 09:13:13;;;;;;;6.28;5.65;;;28.00;46.20;;;;;;5011070;28;20018;-55
2022/07/20 09:15:48;;;;;;;7.13;6.15;;;28.00;46.20;;;;;;5009178;28;20068;-52
2022/07/20 09:18:21;;;;;;;8.20;5.97;;;28.00;46.20;;;;;;5010463;28;20045;-57
2022/07/20 09:20:53;;;;;;;6.93;6.07;;;28.10;46.30;;;;;;5012064;28;20068;-59
2022/07/20 09:23:20;;;;;;;9.65;5.68;;;28.00;46.20;;;;;;5007759;28;20030;-59
2022/07/20 09:26:02;;;;;;;8.35;6.82;;;28.00;46.30;;;;;;5010764;28;20440;-53
2022/07/20 09:28:37;;;;;;;7.45;6.50;;;27.90;46.30;;;;;;5010545;28;20105;-57
2022/07/20 09:31:03;;;;;;;9.05;6.55;;;27.60;46.40;;;;;;5010854;28;20496;-55
2022/07/20 09:33:31;;;;;;;9.73;7.18;;;27.30;46.60;;;;;;5009806;28;20034;-57
2022/07/20 09:36:00;;;;;;;9.75;7.25;;;27.00;46.90;;;;;;5009993;28;20406;-55
2022/07/20 09:38:38;;;;;;;9.32;7.57;;;26.70;47.90;;;;;;5007973;28;20026;-55
2022/07/20 09:41:20;;;;;;;9.43;7.32;;;26.40;47.60;;;;;;5008961;28;20434;-58
2022/07/20 09:43:46;;;;;;;9.13;7.15;;;26.10;48.10;;;;;;5010258;28;20034;-52
2022/07/20 09:46:13;;;;;;;8.85;6.85;;;26.00;48.50;;;;;;5014171;28;20022;-57
2022/07/20 09:48:45;;;;;;;7.95;5.55;;;25.90;48.60;;;;;;5013767;28;20373;-59
2022/07/20 09:51:32;;;;;;;6.38;4.97;;;25.90;48.50;;;;;;5012699;28;20026;-54
2022/07/20 09:54:03;;;;;;;5.93;4.63;;;25.90;48.20;;;;;;5012499;28;20665;-54
2022/07/20 09:56:30;;;;;;;7.20;4.90;;;25.90;48.20;;;;;;5013690;28;20034;-59
2022/07/20 09:58:58;;;;;;;5.80;4.63;;;25.90;48.40;;;;;;5014143;28;20025;-59
2022/07/20 10:01:28;;;;;;;8.55;5.43;;;25.80;48.40;;;;;;5018551;28;20029;-56
2022/07/20 10:03:56;;;;;;;5.65;5.05;;;25.80;48.60;;;;;;5013890;28;20037;-55
2022/07/20 10:06:25;;;;;;;6.70;5.47;;;25.70;48.60;;;;;;5012416;28;20030;-56
2022/07/20 10:08:51;;;;;;;6.65;5.47;;;25.60;48.50;;;;;;5013247;28;20116;-57
2022/07/20 10:11:19;;;;;;;7.20;5.32;;;25.60;48.50;;;;;;5012373;28;20041;-57
2022/07/20 10:13:48;;;;;;;10.68;6.28;;;25.60;48.50;;;;;;5013590;28;20037;-56
2022/07/20 10:16:37;;;;;;;7.72;6.00;;;25.50;48.50;;;;;;5014531;28;20453;-53
2022/07/20 10:19:04;;;;;;;9.05;5.78;;;25.50;48.50;;;;;;5013467;28;20545;-55
2022/07/20 10:21:42;;;;;;;8.05;5.38;;;25.40;48.60;;;;;;5015815;28;20033;-51
2022/07/20 10:24:29;;;;;;;6.28;5.35;;;25.30;48.60;;;;;;5017788;28;20030;-54
2022/07/20 10:27:24;;;;;;;7.63;5.53;;;25.30;48.40;;;;;;5013220;28;20025;-51
2022/07/20 10:29:52;;;;;;;7.00;4.55;;;25.20;48.30;;;;;;5009240;28;20132;-53
2022/07/20 10:32:28;;;;;;;6.78;4.60;;;25.20;48.30;;;;;;5012895;28;20042;-55
2022/07/20 10:34:59;;;;;;;5.70;4.55;;;25.30;48.10;;;;;;5013605;28;20037;-51
2022/07/20 10:37:40;;;;;;;4.35;3.75;;;25.50;47.90;;;;;;5010718;28;20025;-57
2022/07/20 10:40:06;;;;;;;5.57;3.92;;;25.60;47.60;;;;;;5011141;28;20422;-52
2022/07/20 10:43:03;;;;;;;5.55;4.28;;;25.80;47.40;;;;;;5013545;28;20034;-56
2022/07/20 10:45:30;;;;;;;4.15;3.75;;;26.00;47.30;;;;;;5010953;28;20108;-57
2022/07/20 10:48:11;;;;;;;4.18;3.78;;;26.00;47.10;;;;;;5013091;28;20033;-48
2022/07/20 10:50:49;;;;;;;5.65;3.75;;;26.20;47.10;;;;;;5010351;28;20026;-56
2022/07/20 10:53:14;;;;;;;4.40;3.50;;;26.20;47.00;;;;;;5015283;28;20053;-59
2022/07/20 10:55:50;;;;;;;5.20;4.15;;;26.30;46.90;;;;;;5016906;28;20034;-53
2022/07/20 10:58:19;;;;;;;4.95;4.45;;;26.40;47.10;;;;;;5014829;28;20038;-53
2022/07/20 11:00:47;;;;;;;4.85;3.80;;;26.50;47.00;;;;;;5011352;28;20022;-53
2022/07/20 11:03:14;;;;;;;4.38;3.97;;;26.50;47.00;;;;;;5012619;28;20060;-51
2022/07/20 11:05:40;;;;;;;4.78;4.25;;;26.60;47.10;;;;;;5011743;28;20065;-57
2022/07/20 11:08:10;;;;;;;5.22;4.47;;;26.70;47.20;;;;;;5012677;28;20030;-48
2022/07/20 11:10:37;;;;;;;4.70;4.20;;;26.70;47.70;;;;;;5012495;28;20014;-53
2022/07/20 11:13:09;;;;;;;4.65;4.15;;;26.80;47.10;;;;;;5011791;28;20049;-55
2022/07/20 11:15:52;;;;;;;5.18;4.18;;;26.80;47.10;;;;;;5011139;28;20044;-55
2022/07/20 11:18:21;;;;;;;6.05;4.40;;;26.80;46.90;;;;;;5011478;28;20026;-51
2022/07/20 11:20:51;;;;;;;5.00;4.07;;;26.80;46.80;;;;;;5011851;28;20330;-51
2022/07/20 11:23:19;;;;;;;4.47;4.07;;;26.90;46.90;;;;;;5005929;28;20109;-55
2022/07/20 11:26:00;;;;;;;5.00;4.00;;;26.90;46.90;;;;;;5012494;28;20034;-54
2022/07/20 11:28:35;;;;;;;4.25;3.67;;;27.00;47.00;;;;;;5012170;28;20038;-49
2022/07/20 11:31:01;;;;;;;4.68;4.13;;;27.00;47.00;;;;;;5009424;28;20029;-55
2022/07/20 11:33:33;;;;;;;4.40;3.80;;;27.10;47.00;;;;;;5006307;28;21960;-53
2022/07/20 11:36:02;;;;;;;4.35;3.70;;;27.10;47.00;;;;;;5004803;28;20042;-63
2022/07/20 11:38:48;;;;;;;6.15;5.03;;;27.20;47.00;;;;;;5002949;28;20369;-57
2022/07/20 11:41:19;;;;;;;6.88;5.35;;;27.20;48.40;;;;;;5027808;28;20038;-59
2022/07/20 11:43:47;;;;;;;7.78;5.60;;;27.00;49.70;;;;;;5011219;28;20044;-59
2022/07/20 11:46:14;;;;;;;7.20;6.15;;;26.80;50.60;;;;;;5006903;28;20034;-62
2022/07/20 11:48:43;;;;;;;5.80;5.20;;;26.60;51.30;;;;;;5010313;28;20353;-59
2022/07/20 11:51:11;;;;;;;6.55;5.57;;;26.40;51.40;;;;;;5010704;28;20121;-60
2022/07/20 11:53:39;;;;;;;5.40;4.90;;;26.30;51.40;;;;;;5010056;28;20058;-53
2022/07/20 11:56:20;;;;;;;5.32;4.82;;;26.20;51.20;;;;;;5010686;28;20520;-54
2022/07/20 11:58:50;;;;;;;5.05;4.55;;;26.10;51.10;;;;;;5009829;28;20040;-60
2022/07/20 12:01:25;;;;;;;5.55;4.90;;;26.00;50.90;;;;;;5005827;28;21544;-61
2022/07/20 12:03:54;;;;;;;5.95;5.13;;;26.00;50.70;;;;;;5007445;28;20353;-63
2022/07/20 12:06:21;;;;;;;6.47;5.13;;;26.00;50.60;;;;;;5002294;28;20026;-61
2022/07/20 12:09:20;;;;;;;5.30;4.82;;;25.80;50.30;;;;;;5009953;28;20353;-60
2022/07/20 12:11:57;;;;;;;5.60;4.22;;;25.80;50.00;;;;;;4998407;28;20046;-59
2022/07/20 12:14:32;;;;;;;6.10;4.68;;;25.70;49.70;;;;;;5007831;28;20093;-59
2022/07/20 12:17:11;;;;;;;5.65;4.50;;;25.60;49.20;;;;;;5009702;28;20038;-60
2022/07/20 12:19:43;;;;;;;6.60;4.97;;;25.60;48.80;;;;;;5007600;28;20036;-61
2022/07/20 12:22:21;;;;;;;5.63;4.70;;;25.40;48.60;;;;;;5010386;28;20033;-60
2022/07/20 12:24:59;;;;;;;6.30;4.50;;;25.30;48.30;;;;;;5015777;28;20034;-62
2022/07/20 12:27:28;;;;;;;5.43;4.47;;;25.30;48.20;;;;;;5009375;28;20030;-61
2022/07/20 12:29:54;;;;;;;6.13;4.95;;;25.20;47.90;;;;;;5005711;28;20030;-60
2022/07/20 12:32:34;;;;;;;6.22;4.93;;;25.10;47.60;;;;;;5014753;28;20029;-61
2022/07/20 12:35:04;;;;;;;5.15;4.43;;;25.10;48.10;;;;;;5006962;28;20129;-57
2022/07/20 12:37:51;;;;;;;4.20;3.80;;;25.00;47.30;;;;;;5009360;28;20026;-59
2022/07/20 12:40:44;;;;;;;4.50;3.83;;;25.00;47.50;;;;;;5006617;28;20025;-60
2022/07/20 12:43:28;;;;;;;3.80;3.40;;;25.20;47.50;;;;;;5007063;28;20172;-56
2022/07/20 12:45:59;;;;;;;;;;;25.40;47.30;;;;;;5007340;28;20092;-60
2022/07/20 12:48:25;;;;;;;3.50;2.78;;;25.60;47.00;;;;;;5006291;28;19921;-61
2022/07/20 12:50:51;;;;;;;4.05;2.88;;;25.70;46.80;;;;;;5008300;28;20414;-57
2022/07/20 12:53:18;;;;;;;3.40;3.10;;;25.90;46.70;;;;;;5002004;28;20070;-60